Time;durP1;ratioP1;P1;durP2;ratioP2;P2;SDS_P1;SDS_P2;PMS_P1;PMS_P2;Temp;Humidity;BMP_temperature;BMP_pressure;BME280_temperature;BME280_humidity;BME280_pressure;Samples;Min_cycle;Max_cycle;Signal;HPM_P1;HPM_P2
2023/08/12 00:00:11;;;;;;;19.33;15.75;;;;;;;19.59;100.00;101690.06;6191757;23;20016;-70
2023/08/12 00:02:39;;;;;;;22.63;17.55;;;;;;;19.56;100.00;101699.00;6217472;23;20456;-70
2023/08/12 00:05:05;;;;;;;21.95;17.73;;;;;;;19.59;100.00;101689.22;6217374;23;20004;-70
2023/08/12 00:07:32;;;;;;;20.92;18.83;;;;;;;19.56;100.00;101691.03;6192510;23;20097;-70
2023/08/12 00:09:58;;;;;;;18.90;16.48;;;;;;;19.58;100.00;101687.47;6192114;23;20082;-70
2023/08/12 00:12:24;;;;;;;21.45;18.73;;;;;;;19.58;100.00;101692.78;6168141;23;20015;-69
2023/08/12 00:14:49;;;;;;;19.42;17.30;;;;;;;19.61;100.00;101684.69;6192535;23;20039;-69
2023/08/12 00:17:15;;;;;;;19.90;17.73;;;;;;;19.63;100.00;101706.78;6191615;23;20139;-69
2023/08/12 00:19:40;;;;;;;21.30;18.92;;;;;;;19.61;100.00;101690.91;6190851;23;20012;-69
2023/08/12 00:22:05;;;;;;;22.98;18.08;;;;;;;19.60;100.00;101691.81;6191449;23;20090;-69
2023/08/12 00:24:31;;;;;;;22.10;17.67;;;;;;;19.60;100.00;101688.28;6165498;22;20035;-69
2023/08/12 00:26:56;;;;;;;20.58;18.45;;;;;;;19.57;100.00;101681.28;6167114;23;20094;-70
2023/08/12 00:29:22;;;;;;;21.77;19.02;;;;;;;19.54;100.00;101681.41;6192045;23;20074;-70
2023/08/12 00:31:47;;;;;;;22.42;18.65;;;;;;;19.53;100.00;101675.19;6191816;23;20087;-70
2023/08/12 00:34:13;;;;;;;24.17;19.88;;;;;;;19.50;100.00;101670.00;6190404;23;20394;-70
2023/08/12 00:36:38;;;;;;;22.98;20.45;;;;;;;19.54;100.00;101670.78;6191012;23;20475;-70
2023/08/12 00:39:04;;;;;;;24.90;20.88;;;;;;;19.54;100.00;101668.13;6167054;23;20065;-70
2023/08/12 00:41:29;;;;;;;26.88;22.05;;;;;;;19.50;100.00;101663.84;6215676;23;20008;-70
2023/08/12 00:43:56;;;;;;;22.70;20.30;;;;;;;19.52;100.00;101657.53;6165850;23;20015;-70
2023/08/12 00:46:22;;;;;;;22.48;20.10;;;;;;;19.50;100.00;101654.06;6190906;23;20307;-70
2023/08/12 00:48:48;;;;;;;24.58;21.40;;;;;;;19.50;100.00;101654.06;6190994;23;20018;-70
2023/08/12 00:51:18;;;;;;;23.70;21.05;;;;;;;19.45;100.00;101644.50;6167477;23;20040;-70
2023/08/12 00:53:46;;;;;;;24.10;19.85;;;;;;;19.46;100.00;101646.25;6216830;23;20004;-70
2023/08/12 00:56:12;;;;;;;24.20;21.15;;;;;;;19.53;100.00;101653.09;6217201;23;20387;-70
2023/08/12 00:58:38;;;;;;;23.83;21.33;;;;;;;19.56;100.00;101651.16;6217548;23;20138;-70
2023/08/12 01:01:03;;;;;;;22.98;20.45;;;;;;;19.58;100.00;101645.78;6193070;23;20129;-70
2023/08/12 01:03:30;;;;;;;22.77;20.45;;;;;;;19.58;100.00;101644.94;6192968;23;20004;-70
2023/08/12 01:05:55;;;;;;;22.52;19.85;;;;;;;19.61;100.00;101645.69;6192508;23;20027;-70
2023/08/12 01:08:22;;;;;;;23.27;20.77;;;;;;;19.64;100.00;101644.69;6216598;23;20327;-70
2023/08/12 01:10:58;;;;;;;26.75;22.77;;;;;;;19.65;100.00;101646.44;6191812;23;20456;-70
2023/08/12 01:13:43;;;;;;;23.70;21.17;;;;;;;19.65;100.00;101643.78;6217471;23;20008;-70
2023/08/12 01:16:10;;;;;;;25.90;23.25;;;;;;;19.65;100.00;101633.16;6215610;23;20008;-70
2023/08/12 01:18:38;;;;;;;23.90;21.52;;;;;;;19.59;100.00;101628.91;6217120;23;20031;-70
2023/08/12 01:21:07;;;;;;;27.33;22.27;;;;;;;19.60;100.00;101628.00;6216438;23;20035;-70
2023/08/12 01:23:33;;;;;;;23.77;21.30;;;;;;;19.68;100.00;101625.94;6216471;23;20008;-70
2023/08/12 01:25:58;;;;;;;28.13;22.40;;;;;;;19.64;100.00;101615.44;6161549;23;20021;-70
2023/08/12 01:28:24;;;;;;;25.77;23.17;;;;;;;19.65;100.00;101618.09;6192598;23;20039;-70
2023/08/12 01:30:57;;;;;;;27.23;23.48;;;;;;;19.66;100.00;101617.13;6167446;23;20019;-70
2023/08/12 01:33:49;;;;;;;29.02;25.25;;;;;;;19.66;100.00;101617.13;6217783;23;20023;-70
2023/08/12 01:36:18;;;;;;;28.25;25.23;;;;;;;19.63;100.00;101611.94;6216286;23;20018;-70
2023/08/12 01:38:46;;;;;;;27.35;24.45;;;;;;;19.64;100.00;101596.84;6217626;23;20004;-69
2023/08/12 01:41:13;;;;;;;26.70;24.05;;;;;;;19.62;100.00;101602.22;6191401;23;20066;-70
2023/08/12 01:43:41;;;;;;;27.20;23.58;;;;;;;19.59;100.00;101594.34;6217635;23;20023;-70
2023/08/12 01:46:07;;;;;;;27.13;24.30;;;;;;;19.59;100.00;101594.34;6215517;23;20012;-69
2023/08/12 01:48:32;;;;;;;26.65;23.92;;;;;;;19.56;100.00;101591.81;6243776;23;20111;-69
2023/08/12 01:50:58;;;;;;;25.75;23.08;;;;;;;19.55;100.00;101593.63;6216330;23;20115;-69
2023/08/12 01:53:23;;;;;;;25.48;22.65;;;;;;;19.54;100.00;101593.69;6217810;23;20004;-69
2023/08/12 01:55:53;;;;;;;25.30;22.27;;;;;;;19.53;100.00;101602.56;6191731;23;20011;-69
2023/08/12 01:58:19;;;;;;;28.73;22.70;;;;;;;19.52;100.00;101595.50;6244350;23;20077;-69
2023/08/12 02:00:44;;;;;;;24.80;21.83;;;;;;;19.50;100.00;101594.72;6191637;23;20095;-70
2023/08/12 02:03:09;;;;;;;23.35;20.52;;;;;;;19.50;100.00;101584.94;6192855;23;20015;-69
2023/08/12 02:05:37;;;;;;;22.67;20.40;;;;;;;19.48;100.00;101585.91;6193071;23;20008;-70
2023/08/12 02:08:04;;;;;;;24.88;21.00;;;;;;;19.48;100.00;101586.81;6191633;23;20101;-69
2023/08/12 02:10:29;;;;;;;22.73;19.48;;;;;;;19.46;100.00;101587.78;6180035;23;20027;-69
2023/08/12 02:12:55;;;;;;;22.15;19.85;;;;;;;19.46;100.00;101585.13;6192032;23;20015;-69
2023/08/12 02:15:20;;;;;;;21.02;18.90;;;;;;;19.42;100.00;101580.84;6191822;23;20007;-69
2023/08/12 02:17:46;;;;;;;24.13;19.40;;;;;;;19.39;100.00;101582.69;6168163;23;20004;-69
2023/08/12 02:20:11;;;;;;;20.80;18.65;;;;;;;19.38;100.00;101574.78;6192347;23;20334;-69
2023/08/12 02:22:37;;;;;;;19.98;17.88;;;;;;;19.38;100.00;101585.41;6217425;23;20119;-70
2023/08/12 02:25:03;;;;;;;24.30;18.10;;;;;;;19.38;100.00;101580.97;6216092;23;20011;-69
2023/08/12 02:27:28;;;;;;;19.25;16.23;;;;;;;19.38;100.00;101578.31;6168108;23;20027;-70
2023/08/12 02:29:54;;;;;;;19.40;16.55;;;;;;;19.35;100.00;101575.75;6167456;23;20016;-69
2023/08/12 02:32:19;;;;;;;19.38;15.63;;;;;;;19.35;100.00;101570.44;6192403;23;20340;-69
2023/08/12 02:34:45;;;;;;;21.15;15.73;;;;;;;19.33;100.00;101574.94;6190681;23;20375;-69
2023/08/12 02:37:12;;;;;;;18.75;15.20;;;;;;;19.33;100.00;101571.41;6217054;23;20056;-70
2023/08/12 02:39:37;;;;;;;19.58;15.65;;;;;;;19.33;100.00;101560.78;6165866;23;20019;-69
2023/08/12 02:42:03;;;;;;;20.05;16.13;;;;;;;19.32;100.00;101564.38;6191784;23;20012;-69
2023/08/12 02:44:28;;;;;;;20.92;15.77;;;;;;;19.31;100.00;101563.50;6166541;22;20016;-69
2023/08/12 02:46:54;;;;;;;19.10;15.93;;;;;;;19.30;100.00;101561.75;6191882;23;20426;-69
2023/08/12 02:49:19;;;;;;;17.40;14.98;;;;;;;19.28;100.00;101557.41;6166502;23;20491;-69
2023/08/12 02:51:45;;;;;;;21.25;15.23;;;;;;;19.26;100.00;101549.50;6217346;23;20414;-69
2023/08/12 02:54:10;;;;;;;21.17;15.65;;;;;;;19.26;100.00;101548.66;6167484;23;20454;-69
2023/08/12 02:56:36;;;;;;;19.33;15.45;;;;;;;19.26;100.00;101543.34;6215802;23;20097;-69
2023/08/12 02:59:01;;;;;;;18.25;15.43;;;;;;;19.23;100.00;101539.00;6191524;23;20564;-69
2023/08/12 03:01:27;;;;;;;19.73;16.73;;;;;;;19.21;100.00;101536.41;6192090;23;20016;-69
2023/08/12 03:03:53;;;;;;;18.08;15.15;;;;;;;19.21;100.00;101535.53;6167037;23;20014;-69
2023/08/12 03:06:18;;;;;;;22.58;16.15;;;;;;;19.18;100.00;101528.56;6191359;23;20419;-69
2023/08/12 03:08:44;;;;;;;19.00;17.00;;;;;;;19.16;100.00;101526.88;6165829;23;20016;-69
2023/08/12 03:11:09;;;;;;;17.40;15.32;;;;;;;19.15;100.00;101525.13;6190862;23;20089;-69
2023/08/12 03:13:35;;;;;;;20.10;14.90;;;;;;;19.15;100.00;101525.13;6167346;23;20327;-69
2023/08/12 03:16:00;;;;;;;20.27;14.93;;;;;;;19.14;100.00;101526.06;6216230;23;20060;-69
2023/08/12 03:18:26;;;;;;;16.10;14.32;;;;;;;19.11;100.00;101513.75;6166627;23;20145;-69
2023/08/12 03:20:51;;;;;;;19.17;14.55;;;;;;;19.10;100.00;101514.69;6167342;23;20095;-69
2023/08/12 03:23:19;;;;;;;17.80;14.80;;;;;;;19.10;100.00;101512.03;6167588;23;20158;-69
2023/08/12 03:25:47;;;;;;;17.35;14.48;;;;;;;19.09;100.00;101514.72;6190183;23;20008;-69
2023/08/12 03:28:12;;;;;;;17.92;14.23;;;;;;;19.06;100.00;101509.53;6217063;23;20091;-69
2023/08/12 03:30:38;;;;;;;19.20;14.40;;;;;;;19.06;100.00;101504.22;6166887;23;20018;-69
2023/08/12 03:33:03;;;;;;;16.38;13.27;;;;;;;19.07;100.00;101505.97;6190910;23;20427;-69
2023/08/12 03:35:29;;;;;;;15.05;13.10;;;;;;;19.05;100.00;101503.38;6167011;23;20051;-69
2023/08/12 03:37:54;;;;;;;19.02;13.90;;;;;;;19.03;100.00;101497.22;6166670;23;20016;-69
2023/08/12 03:40:20;;;;;;;15.02;13.40;;;;;;;19.02;100.00;101491.06;6215383;23;20061;-69
2023/08/12 03:42:45;;;;;;;15.40;13.13;;;;;;;19.01;100.00;101499.94;6167234;23;20011;-69
2023/08/12 03:45:13;;;;;;;16.20;13.60;;;;;;;19.01;100.00;101491.13;6166432;23;20091;-69
2023/08/12 03:47:40;;;;;;;17.95;13.65;;;;;;;19.00;100.00;101484.94;6217176;23;20047;-69
2023/08/12 03:50:06;;;;;;;17.55;13.80;;;;;;;18.99;100.00;101472.59;6187172;22;20375;-69
2023/08/12 03:55:07;;;;;;;19.52;13.45;;;;;;;18.97;100.00;101485.03;6179202;23;20033;-69
2023/08/12 04:00:15;;;;;;;14.48;11.30;;;;;;;18.95;100.00;101494.88;6192739;22;20065;-68
2023/08/12 04:02:43;;;;;;;11.98;8.98;;;;;;;18.83;100.00;101480.22;6138468;23;20059;-68
2023/08/12 05:22:25;;;;;;;15.82;12.98;;;;;;;18.50;100.00;101429.19;6213421;23;20024;-67
2023/08/12 05:24:51;;;;;;;14.82;11.38;;;;;;;18.46;100.00;101416.94;6161213;23;20025;-67
2023/08/12 05:27:16;;;;;;;14.50;11.95;;;;;;;18.44;100.00;101413.50;6162816;23;20055;-67
2023/08/12 05:29:43;;;;;;;11.57;10.13;;;;;;;18.42;100.00;101410.00;6138204;23;20012;-67
2023/08/12 05:32:08;;;;;;;12.52;9.77;;;;;;;18.37;100.00;101425.25;6138582;23;20019;-67
2023/08/12 05:34:33;;;;;;;12.77;10.13;;;;;;;18.36;100.00;101427.03;6160445;23;20012;-67
2023/08/12 05:36:59;;;;;;;10.60;9.10;;;;;;;18.37;100.00;101433.19;6162814;23;20012;-67
2023/08/12 05:39:24;;;;;;;10.07;8.55;;;;;;;18.34;100.00;101420.91;6137748;23;20434;-67
2023/08/12 05:41:52;;;;;;;11.05;9.82;;;;;;;18.31;100.00;101400.66;6215334;23;20349;-67
2023/08/12 05:44:17;;;;;;;12.63;9.82;;;;;;;18.30;100.00;101417.50;6163606;23;20043;-70
2023/08/12 05:46:45;;;;;;;10.82;9.15;;;;;;;18.30;100.00;101432.53;6164494;23;20115;-70
2023/08/12 05:49:11;;;;;;;13.15;10.50;;;;;;;18.28;100.00;101427.28;6187752;23;20009;-70
2023/08/12 05:51:38;;;;;;;10.48;9.38;;;;;;;18.26;100.00;101420.31;6163479;23;20484;-69
2023/08/12 05:54:04;;;;;;;11.80;9.95;;;;;;;18.23;100.00;101416.00;6140275;23;20366;-71
2023/08/12 05:56:29;;;;;;;11.95;8.80;;;;;;;18.25;100.00;101426.53;6138117;23;20019;-70
2023/08/12 05:58:54;;;;;;;10.77;8.98;;;;;;;18.23;100.00;101421.28;6162999;23;20015;-68
2023/08/12 06:01:20;;;;;;;11.05;8.98;;;;;;;18.23;100.00;101412.44;6164193;23;20096;-67
2023/08/12 06:03:45;;;;;;;9.80;8.50;;;;;;;18.22;100.00;101416.91;6163921;23;20516;-68
2023/08/12 06:06:11;;;;;;;11.55;8.70;;;;;;;18.22;100.00;101408.94;6139436;23;20397;-67
2023/08/12 06:08:36;;;;;;;10.30;8.32;;;;;;;18.23;100.00;101402.72;6164322;23;20017;-67
2023/08/12 06:11:01;;;;;;;9.15;7.95;;;;;;;18.22;100.00;101400.97;6137475;23;20419;-67
2023/08/12 06:13:27;;;;;;;8.55;7.72;;;;;;;18.24;100.00;101392.97;6164330;23;20036;-67
2023/08/12 06:15:52;;;;;;;8.65;7.85;;;;;;;18.23;100.00;101399.19;6187833;23;20167;-67
2023/08/12 06:18:18;;;;;;;8.63;7.75;;;;;;;18.24;100.00;101398.28;6162748;23;20009;-67
2023/08/12 06:20:43;;;;;;;8.45;7.50;;;;;;;18.24;100.00;101399.13;6186600;23;20031;-67
2023/08/12 06:23:09;;;;;;;9.80;7.82;;;;;;;18.25;100.00;101397.38;6138444;23;20015;-67
2023/08/12 06:25:37;;;;;;;8.93;7.85;;;;;;;18.26;100.00;101399.97;6162128;23;20048;-67
2023/08/12 06:28:04;;;;;;;8.63;7.77;;;;;;;18.26;100.00;101394.66;6116125;23;20450;-67
2023/08/12 06:30:30;;;;;;;8.13;7.32;;;;;;;18.24;100.00;101383.22;6188760;23;20023;-68
2023/08/12 06:32:55;;;;;;;8.80;7.00;;;;;;;18.26;100.00;101378.75;6138329;23;20027;-67
2023/08/12 06:35:21;;;;;;;8.13;7.20;;;;;;;18.30;100.00;101376.81;6160969;23;20035;-67
2023/08/12 06:37:47;;;;;;;8.10;6.60;;;;;;;18.32;100.00;101380.31;6160956;23;20005;-67
2023/08/12 06:40:12;;;;;;;7.65;6.80;;;;;;;18.32;100.00;101375.00;6157755;23;20016;-67
2023/08/12 06:42:38;;;;;;;7.03;6.20;;;;;;;18.33;100.00;101371.41;6160613;23;20087;-67
2023/08/12 06:45:03;;;;;;;6.60;5.97;;;;;;;18.33;100.00;101382.91;6135924;23;20008;-67
2023/08/12 06:47:29;;;;;;;6.72;6.13;;;;;;;18.34;100.00;101381.09;6161107;23;20019;-67
2023/08/12 06:49:55;;;;;;;7.68;6.60;;;;;;;18.38;100.00;101373.91;6186608;23;20013;-67
2023/08/12 06:52:21;;;;;;;8.55;5.78;;;;;;;18.38;100.00;101373.91;6187000;23;20310;-67
2023/08/12 06:54:46;;;;;;;7.78;6.10;;;;;;;18.40;100.00;101372.91;6187240;23;20076;-67
2023/08/12 06:57:12;;;;;;;5.85;5.28;;;;;;;18.45;100.00;101370.13;6185884;23;20370;-70
2023/08/12 06:59:38;;;;;;;6.78;5.72;;;;;;;18.45;100.00;101362.16;6162212;23;20350;-70
2023/08/12 07:02:04;;;;;;;6.05;5.45;;;;;;;18.50;100.00;101368.16;6187257;23;20004;-70
2023/08/12 07:04:29;;;;;;;7.97;5.72;;;;;;;18.50;100.00;101362.84;6162269;23;20013;-70
2023/08/12 07:06:56;;;;;;;6.07;5.47;;;;;;;18.51;100.00;101353.97;6188145;23;20012;-68
2023/08/12 07:09:21;;;;;;;6.28;5.68;;;;;;;18.56;100.00;101360.00;6136034;23;20017;-68
2023/08/12 07:11:46;;;;;;;6.13;5.47;;;;;;;18.60;100.00;101358.06;6162117;23;20162;-67
2023/08/12 07:14:12;;;;;;;6.13;5.53;;;;;;;18.66;100.00;101355.19;6161389;23;20353;-67
2023/08/12 07:16:37;;;;;;;6.10;5.45;;;;;;;18.66;100.00;101350.75;6138386;23;20060;-68
2023/08/12 07:19:03;;;;;;;6.55;5.10;;;;;;;18.68;100.00;101351.53;6138769;23;20015;-70
2023/08/12 07:21:29;;;;;;;6.13;5.47;;;;;;;18.73;100.00;101350.50;6132689;23;20109;-70
2023/08/12 07:23:54;;;;;;;5.85;5.35;;;;;;;18.76;100.00;101350.38;6131527;23;20021;-67
2023/08/12 07:26:19;;;;;;;5.82;5.32;;;;;;;18.77;100.00;101357.44;6160117;23;20013;-68
2023/08/12 07:28:45;;;;;;;6.07;5.47;;;;;;;18.79;100.00;101350.28;6138596;23;20008;-68
2023/08/12 07:31:10;;;;;;;6.07;5.57;;;;;;;18.81;100.00;101353.75;6162573;23;20031;-68
2023/08/12 07:33:36;;;;;;;6.32;5.63;;;;;;;18.82;100.00;101356.34;6137688;23;20477;-68
2023/08/12 07:36:02;;;;;;;6.60;5.90;;;;;;;18.83;100.00;101354.53;6162055;23;20004;-68
2023/08/12 07:38:28;;;;;;;6.97;6.30;;;;;;;18.88;100.00;101352.63;6161692;23;20016;-68
2023/08/12 07:40:53;;;;;;;7.13;6.43;;;;;;;18.88;100.00;101357.94;6162030;23;20342;-68
2023/08/12 07:43:19;;;;;;;6.95;6.35;;;;;;;18.91;100.00;101352.50;6161716;23;20093;-68
2023/08/12 07:45:44;;;;;;;6.95;5.97;;;;;;;18.95;100.00;101362.09;6137729;23;20015;-68
2023/08/12 07:48:10;;;;;;;6.75;6.15;;;;;;;18.94;100.00;101357.69;6135305;23;20090;-68
2023/08/12 07:50:35;;;;;;;6.95;6.35;;;;;;;19.00;100.00;101356.59;6137923;23;20013;-69
2023/08/12 07:53:01;;;;;;;6.88;6.28;;;;;;;19.08;100.00;101348.31;6162974;23;20500;-69
2023/08/12 07:55:27;;;;;;;6.32;5.72;;;;;;;19.08;100.00;101350.97;6161090;23;20452;-69
2023/08/12 07:57:53;;;;;;;6.10;5.60;;;;;;;19.11;100.00;101348.22;6186457;23;20008;-69
2023/08/12 08:00:19;;;;;;;6.45;5.95;;;;;;;19.18;100.00;101341.72;6136194;23;20445;-69
2023/08/12 08:02:44;;;;;;;6.43;5.82;;;;;;;19.23;100.00;101341.53;6144541;23;20078;-68
2023/08/12 08:05:10;;;;;;;6.10;5.60;;;;;;;19.26;100.00;101342.25;6156498;23;20444;-68
2023/08/12 08:07:36;;;;;;;6.43;5.82;;;;;;;19.38;100.00;101347.09;6132128;23;20084;-68
2023/08/12 08:10:02;;;;;;;5.57;5.07;;;;;;;19.37;100.00;101342.69;6132066;23;20178;-69
2023/08/12 08:12:28;;;;;;;5.38;4.88;;;;;;;19.38;100.00;101347.09;6180025;23;20079;-69
2023/08/12 08:14:53;;;;;;;4.90;4.50;;;;;;;19.44;100.00;101350.41;6155920;23;20427;-69
2023/08/12 08:17:18;;;;;;;4.90;4.50;;;;;;;19.44;100.00;101355.72;6180379;23;20009;-69
2023/08/12 08:19:47;;;;;;;4.82;4.40;;;;;;;19.52;100.00;101358.94;6155672;23;20422;-69
2023/08/12 08:22:36;;;;;;;3.92;3.60;;;;;;;19.58;100.00;101369.31;6155886;23;20008;-69
2023/08/12 08:25:02;;;;;;;3.95;3.63;;;;;;;19.64;100.00;101369.09;6156175;23;20005;-69
2023/08/12 08:27:27;;;;;;;4.50;4.10;;;;;;;19.72;100.00;101368.75;6156954;23;20017;-68
2023/08/12 08:29:55;;;;;;;3.92;3.60;;;;;;;19.88;100.00;101367.22;6180975;23;20012;-68
2023/08/12 08:32:21;;;;;;;3.58;3.25;;;;;;;19.92;100.00;101365.28;6183030;23;20013;-69
2023/08/12 08:34:46;;;;;;;3.20;2.90;;;;;;;20.00;100.00;101360.50;6129856;23;20019;-68
2023/08/12 08:37:11;;;;;;;2.83;2.50;;;;;;;20.06;100.00;101349.59;6156204;23;20052;-68
2023/08/12 08:39:37;;;;;;;2.58;2.38;;;;;;;20.12;100.00;101363.56;6156535;23;20477;-71
2023/08/12 08:42:04;;;;;;;2.60;2.40;;;;;;;20.14;100.00;101369.69;6181390;23;20012;-69
2023/08/12 08:44:31;;;;;;;3.63;3.30;;;;;;;20.19;100.00;101359.72;6153862;23;20079;-70
2023/08/12 08:46:58;;;;;;;3.85;3.55;;;;;;;20.23;100.00;101383.47;6126373;23;20442;-69
2023/08/12 08:49:25;;;;;;;4.22;3.92;;;;;;;20.33;100.00;101372.38;6156124;23;20148;-69
2023/08/12 08:51:52;;;;;;;4.63;4.32;;;;;;;20.32;100.00;101371.53;6182854;23;20008;-69
2023/08/12 08:54:19;;;;;;;4.78;4.38;;;;;;;20.36;100.00;101391.75;6180309;23;20017;-70
2023/08/12 08:56:44;;;;;;;5.10;4.70;;;;;;;20.45;100.00;101389.63;6181796;23;20380;-70
2023/08/12 08:59:10;;;;;;;5.68;5.28;;;;;;;20.47;100.00;101395.75;6154047;23;20009;-70
2023/08/12 09:01:36;;;;;;;6.07;5.57;;;;;;;20.57;100.00;101395.28;6155624;23;20013;-70
2023/08/12 09:04:03;;;;;;;5.75;5.25;;;;;;;20.50;100.00;101395.59;6129182;23;20324;-70
2023/08/12 09:06:29;;;;;;;5.82;5.43;;;;;;;20.45;100.00;101392.31;6129828;23;20108;-70
2023/08/12 09:08:56;;;;;;;5.70;5.30;;;;;;;20.46;100.00;101392.22;6179885;23;20415;-70
2023/08/12 09:11:23;;;;;;;6.10;5.60;;;;;;;20.45;100.00;101394.97;6131436;23;20044;-70
2023/08/12 09:13:48;;;;;;;5.40;5.00;;;;;;;20.53;100.00;101392.78;6157950;23;20036;-69
2023/08/12 09:16:14;;;;;;;6.10;5.50;;;;;;;20.61;100.00;101398.66;6181923;23;20423;-69
2023/08/12 09:18:45;;;;;;;6.20;5.70;;;;;;;20.77;100.00;101397.06;6157475;23;20009;-69
2023/08/12 09:21:10;;;;;;;;;;;;;;;20.97;100.00;101407.72;6183306;23;20005;-69
2023/08/12 09:23:38;;;;;;;4.22;3.88;;;;;;;20.76;100.00;101411.31;6182902;23;19914;-69
2023/08/12 09:26:17;;;;;;;4.30;4.00;;;;;;;20.77;100.00;101406.84;6157650;23;20027;-69
2023/08/12 09:28:43;;;;;;;4.35;4.05;;;;;;;20.63;100.00;101410.13;6157684;23;20024;-69
2023/08/12 09:31:22;;;;;;;6.00;4.80;;;;;;;20.62;100.00;101421.69;6156768;23;20498;-69
2023/08/12 09:33:47;;;;;;;5.22;4.13;;;;;;;20.48;100.00;101424.97;6158613;23;20079;-70
2023/08/12 09:36:13;;;;;;;4.28;3.88;;;;;;;20.33;100.00;101426.50;6132559;23;20017;-69
2023/08/12 09:38:38;;;;;;;4.38;3.97;;;;;;;20.24;100.00;101426.88;6158077;23;20013;-69
2023/08/12 09:41:28;;;;;;;3.95;3.65;;;;;;;20.30;100.00;101431.97;6132205;23;20024;-69
2023/08/12 09:44:01;;;;;;;3.70;3.40;;;;;;;20.36;100.00;101431.69;6175414;23;20020;-69
2023/08/12 09:46:27;;;;;;;4.00;3.58;;;;;;;20.54;100.00;101422.03;6181994;23;20013;-69
2023/08/12 09:48:53;;;;;;;3.88;3.47;;;;;;;20.80;100.00;101413.81;6132455;23;20033;-69
2023/08/12 09:51:20;;;;;;;3.25;2.97;;;;;;;20.97;100.00;101429.03;6155896;23;20026;-69
2023/08/12 09:53:49;;;;;;;3.22;3.03;;;;;;;21.08;100.00;101429.41;6182654;23;20013;-69
2023/08/12 09:56:18;;;;;;;3.53;3.22;;;;;;;20.91;100.00;101430.19;6181487;23;20777;-69
2023/08/12 09:58:46;;;;;;;3.00;2.70;;;;;;;20.79;100.00;101423.63;6158547;23;20092;-69
2023/08/12 10:01:13;;;;;;;2.70;2.50;;;;;;;20.67;100.00;101422.38;6158261;23;20004;-69
2023/08/12 10:03:40;;;;;;;2.70;2.50;;;;;;;20.59;100.00;101428.00;6134125;23;20355;-69
2023/08/12 10:06:06;;;;;;;3.17;2.97;;;;;;;20.49;100.00;101425.84;6182062;23;20005;-69
2023/08/12 10:08:33;;;;;;;3.90;3.15;;;;;;;20.39;100.00;101436.88;6155974;23;20063;-70
2023/08/12 10:13:26;;;;;;;5.50;3.75;;;;;;;20.19;100.00;101445.72;6182425;22;20024;-70
2023/08/12 10:15:52;;;;;;;4.72;4.22;;;;;;;20.19;100.00;101442.19;6127004;23;20024;-70
2023/08/12 10:18:19;;;;;;;4.68;4.28;;;;;;;20.22;100.00;101448.25;6127350;23;20068;-70
2023/08/12 10:20:45;;;;;;;4.78;4.38;;;;;;;20.29;100.00;101446.19;6151352;23;20037;-69
2023/08/12 10:23:16;;;;;;;3.90;3.60;;;;;;;20.39;100.00;101452.84;6126378;23;20017;-70
2023/08/12 10:25:47;;;;;;;4.68;3.85;;;;;;;20.53;100.00;101443.38;6150780;23;20416;-69
2023/08/12 10:28:13;;;;;;;3.45;3.00;;;;;;;20.61;100.00;101451.91;6153411;23;20009;-70
2023/08/12 10:30:41;;;;;;;2.55;2.33;;;;;;;20.58;97.53;101452.91;6127809;23;20013;-70
2023/08/12 10:33:07;;;;;;;3.42;2.80;;;;;;;20.65;99.33;101445.50;6127181;23;20331;-69
2023/08/12 10:35:47;;;;;;;5.18;2.55;;;;;;;20.74;98.87;101445.13;6127389;23;20432;-70
2023/08/12 10:38:21;;;;;;;5.00;2.60;;;;;;;20.91;97.43;101438.19;6128365;23;20013;-70
2023/08/12 10:40:47;;;;;;;5.43;2.17;;;;;;;21.04;95.92;101435.81;6127017;23;20020;-69
2023/08/12 10:43:13;;;;;;;3.17;2.00;;;;;;;21.22;97.35;101442.06;6128380;23;20096;-68
2023/08/12 10:45:46;;;;;;;3.45;2.90;;;;;;;21.33;96.94;101441.59;6152378;23;20093;-69
2023/08/12 10:48:25;;;;;;;3.97;3.55;;;;;;;21.31;96.69;101431.00;6176503;23;20036;-70
2023/08/12 10:50:59;;;;;;;4.30;3.28;;;;;;;21.41;97.22;101448.28;6177668;23;20042;-70
2023/08/12 10:53:29;;;;;;;4.47;2.75;;;;;;;21.45;95.41;101451.66;6153434;23;20426;-69
2023/08/12 10:56:03;;;;;;;5.18;3.10;;;;;;;21.41;94.44;101458.94;6152081;23;20013;-69
2023/08/12 10:58:44;;;;;;;4.63;2.45;;;;;;;21.35;91.90;101459.22;6178108;23;20419;-69
2023/08/12 11:01:17;;;;;;;4.18;2.95;;;;;;;21.31;94.55;101456.78;6177084;23;20331;-69
2023/08/12 11:03:43;;;;;;;3.95;1.90;;;;;;;21.28;91.31;101449.81;6177548;23;20006;-70
2023/08/12 11:06:12;;;;;;;4.10;1.60;;;;;;;21.48;91.74;101454.19;6151668;23;20089;-68
2023/08/12 11:09:08;;;;;;;3.47;1.50;;;;;;;21.67;90.47;101456.84;6177102;23;20410;-69
2023/08/12 11:11:33;;;;;;;4.95;1.50;;;;;;;21.70;86.60;101447.84;6133014;23;20399;-69
2023/08/12 11:13:59;;;;;;;4.20;1.52;;;;;;;21.69;85.38;101446.97;6177653;23;20072;-69
2023/08/12 11:16:52;;;;;;;4.18;1.42;;;;;;;21.74;86.88;101457.44;6152358;23;20014;-68
2023/08/12 11:19:19;;;;;;;4.38;1.90;;;;;;;21.51;85.11;101458.50;6148633;23;20021;-68
2023/08/12 11:21:45;;;;;;;4.25;1.63;;;;;;;21.25;83.61;101453.47;6128326;23;20009;-69
2023/08/12 11:24:11;;;;;;;3.55;1.75;;;;;;;21.16;85.90;101451.25;6151725;23;20096;-69
2023/08/12 11:26:39;;;;;;;3.33;1.40;;;;;;;21.25;89.16;101455.28;6150747;23;20041;-68
2023/08/12 11:29:14;;;;;;;3.10;1.25;;;;;;;21.56;87.82;101449.34;6172260;23;20059;-68
2023/08/12 11:31:40;;;;;;;4.47;1.63;;;;;;;21.74;87.82;101436.94;6126050;23;20009;-68
2023/08/12 11:34:05;;;;;;;4.78;2.00;;;;;;;21.85;85.41;101436.44;6176591;23;20021;-68
2023/08/12 11:36:31;;;;;;;3.88;1.90;;;;;;;21.92;85.55;101444.97;6127367;23;20088;-68
2023/08/12 11:38:57;;;;;;;5.22;2.00;;;;;;;21.97;85.22;101435.78;6127910;23;20017;-68
2023/08/12 11:41:23;;;;;;;4.43;2.10;;;;;;;21.90;83.81;101444.19;6152796;23;20462;-69
2023/08/12 11:43:48;;;;;;;6.18;1.77;;;;;;;21.77;81.67;101449.28;6152753;23;20021;-68
2023/08/12 11:46:18;;;;;;;4.32;1.55;;;;;;;21.69;76.53;101451.44;6153048;23;20009;-69
2023/08/12 11:48:46;;;;;;;3.30;1.50;;;;;;;21.57;74.84;101452.91;6151688;23;20021;-70
2023/08/12 11:51:13;;;;;;;3.83;1.70;;;;;;;21.71;78.30;101449.59;6178485;23;20400;-70
2023/08/12 11:53:39;;;;;;;6.43;2.08;;;;;;;21.75;75.11;101457.34;6151514;23;20013;-69
2023/08/12 11:56:05;;;;;;;5.20;1.60;;;;;;;21.76;75.18;101456.38;6151291;23;20029;-69
2023/08/12 11:58:37;;;;;;;4.93;2.10;;;;;;;21.74;74.69;101463.63;6128410;23;20020;-70
2023/08/12 12:01:03;;;;;;;6.45;2.42;;;;;;;21.65;73.64;101460.53;6153019;23;20013;-70
2023/08/12 12:03:30;;;;;;;8.70;2.00;;;;;;;21.70;74.93;101470.03;6121928;23;20399;-70
2023/08/12 12:05:56;;;;;;;5.50;1.70;;;;;;;21.86;73.91;101461.28;6152758;23;20016;-70
2023/08/12 12:08:22;;;;;;;6.65;2.00;;;;;;;21.92;73.17;101467.19;6127849;23;20037;-71
2023/08/12 12:10:47;;;;;;;6.72;2.35;;;;;;;21.97;72.82;101466.97;6127885;23;20324;-70
2023/08/12 12:13:14;;;;;;;3.90;1.80;;;;;;;22.12;75.49;101471.53;6154103;23;20017;-70
2023/08/12 12:15:43;;;;;;;5.00;1.80;;;;;;;22.18;74.05;101472.16;6157120;23;20071;-69
2023/08/12 12:18:14;;;;;;;5.38;2.00;;;;;;;22.24;74.26;101467.38;6156420;23;20016;-69
2023/08/12 12:20:58;;;;;;;8.05;2.55;;;;;;;22.35;75.48;101461.50;6153808;23;20005;-69
2023/08/12 12:23:31;;;;;;;8.80;1.92;;;;;;;22.20;70.92;101456.94;6156234;23;20020;-68
2023/08/12 12:26:03;;;;;;;6.03;1.75;;;;;;;22.16;71.62;101472.22;6156281;23;20015;-70
2023/08/12 12:28:31;;;;;;;8.00;2.38;;;;;;;22.15;74.14;101476.72;6156930;23;20008;-70
2023/08/12 12:30:56;;;;;;;6.82;2.22;;;;;;;22.10;73.43;101473.41;6182801;23;20037;-70
2023/08/12 12:33:22;;;;;;;7.53;2.08;;;;;;;22.08;71.95;101471.75;6157097;23;20019;-69
2023/08/12 12:35:50;;;;;;;7.35;2.20;;;;;;;22.16;74.66;101477.56;6132419;23;20061;-69